createdAt,value
2023-04-28T00:00:38.510Z,14.30
2023-04-28T00:03:06.582Z,14.95
2023-04-28T00:05:34.763Z,9.07
2023-04-28T00:08:04.339Z,19.42
2023-04-28T00:10:32.451Z,12.63
2023-04-28T00:13:00.282Z,12.77
2023-04-28T00:15:28.096Z,10.38
2023-04-28T00:17:56.103Z,9.95
2023-04-28T00:20:24.209Z,10.57
2023-04-28T00:22:51.990Z,12.85
2023-04-28T00:25:21.114Z,17.10
2023-04-28T00:27:48.928Z,12.68
2023-04-28T00:30:16.875Z,11.57
2023-04-28T00:32:44.788Z,9.52
2023-04-28T00:35:12.669Z,12.75
2023-04-28T00:37:40.707Z,13.40
2023-04-28T00:40:09.601Z,12.65
2023-04-28T00:42:38.915Z,8.73
2023-04-28T00:45:08.181Z,11.75
2023-04-28T00:47:36.226Z,14.98
2023-04-28T00:50:06.460Z,12.27
2023-04-28T00:52:34.422Z,17.00
2023-04-28T00:55:02.366Z,11.90
2023-04-28T00:57:32.163Z,13.98
2023-04-28T01:00:02.494Z,15.80
2023-04-28T01:02:30.978Z,14.05
2023-04-28T01:04:59.890Z,15.95
2023-04-28T01:07:28.514Z,14.40
2023-04-28T01:09:57.267Z,13.43
2023-04-28T01:12:30.692Z,16.67
2023-04-28T01:14:59.226Z,14.30
2023-04-28T01:17:28.721Z,15.32
2023-04-28T01:19:56.909Z,12.32
2023-04-28T01:22:24.682Z,14.20
2023-04-28T01:24:53.837Z,15.82
2023-04-28T01:27:23.355Z,12.27
2023-04-28T01:29:51.275Z,11.75
2023-04-28T01:32:19.067Z,13.77
2023-04-28T01:34:47.532Z,12.80
2023-04-28T01:37:15.433Z,13.88
2023-04-28T01:39:43.256Z,9.15
2023-04-28T01:42:12.443Z,21.88
2023-04-28T01:44:41.185Z,15.32
2023-04-28T01:47:09.358Z,14.50
2023-04-28T01:49:37.146Z,11.60
2023-04-28T01:52:05.260Z,10.45
2023-04-28T01:54:33.147Z,19.27
2023-04-28T01:57:02.396Z,11.10
2023-04-28T01:59:31.697Z,12.48
2023-04-28T02:01:59.688Z,11.43
2023-04-28T02:04:28.213Z,11.00
2023-04-28T02:06:56.060Z,16.13
2023-04-28T02:09:23.963Z,11.40
2023-04-28T02:11:52.020Z,11.13
2023-04-28T02:14:21.738Z,11.50
2023-04-28T02:16:50.976Z,13.13
2023-04-28T02:19:18.788Z,12.80
2023-04-28T02:21:46.549Z,13.73
2023-04-28T02:24:15.200Z,14.05
2023-04-28T02:26:43.144Z,9.32
2023-04-28T02:29:11.008Z,9.75
2023-04-28T02:31:38.886Z,13.80
2023-04-28T02:34:08.134Z,12.70
2023-04-28T02:36:36.002Z,14.68
2023-04-28T02:39:04.152Z,16.73
2023-04-28T02:41:32.125Z,14.48
2023-04-28T02:43:59.955Z,13.60
2023-04-28T02:46:27.939Z,12.73
2023-04-28T02:48:56.418Z,10.65
2023-04-28T02:51:25.790Z,13.48
2023-04-28T02:53:53.778Z,12.57
2023-04-28T02:56:21.717Z,12.07
2023-04-28T02:58:49.577Z,11.63
2023-04-28T03:01:17.510Z,15.98
2023-04-28T03:03:45.627Z,14.93
2023-04-28T03:06:13.530Z,14.70
2023-04-28T03:08:42.707Z,12.10
2023-04-28T03:11:11.133Z,14.88
2023-04-28T03:13:39.412Z,16.20
2023-04-28T03:16:08.405Z,14.68
2023-04-28T03:18:36.341Z,12.68
2023-04-28T03:21:05.079Z,10.05
2023-04-28T03:23:32.873Z,12.73
2023-04-28T03:26:02.082Z,11.20
2023-04-28T03:28:30.458Z,13.55
2023-04-28T03:31:00.082Z,12.93
2023-04-28T03:33:28.236Z,15.57
2023-04-28T03:35:56.521Z,14.68
2023-04-28T03:38:24.369Z,11.75
2023-04-28T03:40:52.558Z,16.20
2023-04-28T03:43:35.397Z,16.23
2023-04-28T03:46:29.654Z,18.00
2023-04-28T03:48:59.478Z,15.75
2023-04-28T03:51:27.921Z,10.73
2023-04-28T03:53:56.268Z,16.10
2023-04-28T03:56:24.126Z,15.68
2023-04-28T03:58:53.427Z,13.35
2023-04-28T04:01:21.226Z,18.20
2023-04-28T04:03:49.809Z,16.98
2023-04-28T04:06:19.285Z,19.23
2023-04-28T04:08:48.660Z,13.02
2023-04-28T04:11:17.246Z,16.92
2023-04-28T04:13:45.053Z,17.75
2023-04-28T04:16:17.886Z,13.88
2023-04-28T04:18:45.781Z,14.95
2023-04-28T04:21:19.510Z,15.27
2023-04-28T04:23:48.426Z,13.68
2023-04-28T04:26:16.500Z,16.58
2023-04-28T04:28:44.380Z,16.27
2023-04-28T04:31:12.479Z,17.05
2023-04-28T04:33:42.090Z,17.42
2023-04-28T04:36:10.760Z,14.25
2023-04-28T04:38:38.528Z,12.43
2023-04-28T04:41:24.157Z,17.88
2023-04-28T04:44:00.310Z,16.15
2023-04-28T04:46:38.322Z,18.88
2023-04-28T04:49:07.516Z,17.70
2023-04-28T04:51:35.338Z,15.07
2023-04-28T04:54:03.156Z,14.30
2023-04-28T04:56:31.754Z,15.05
2023-04-28T04:58:59.928Z,13.48
2023-04-28T05:01:43.461Z,21.92
2023-04-28T05:04:12.948Z,18.92
2023-04-28T05:06:41.678Z,20.65
2023-04-28T05:09:09.516Z,17.05
2023-04-28T05:11:37.572Z,16.40
2023-04-28T05:14:05.437Z,25.08
2023-04-28T05:16:33.687Z,16.13
2023-04-28T05:19:13.057Z,19.15
2023-04-28T05:21:41.524Z,19.35
2023-04-28T05:24:09.505Z,19.02
2023-04-28T05:26:37.600Z,20.42
2023-04-28T05:29:09.564Z,21.92
2023-04-28T05:31:37.498Z,16.80
2023-04-28T05:34:06.768Z,18.98
2023-04-28T05:36:36.492Z,20.45
2023-04-28T05:39:05.117Z,18.38
2023-04-28T05:41:32.953Z,17.75
2023-04-28T05:44:00.758Z,16.77
2023-04-28T05:46:31.205Z,17.42
2023-04-28T05:49:02.557Z,19.95
2023-04-28T05:51:38.674Z,15.75
2023-04-28T05:54:06.569Z,18.98
2023-04-28T05:56:40.508Z,16.55
2023-04-28T05:59:10.469Z,20.65
2023-04-28T06:01:38.743Z,17.58
2023-04-28T06:04:07.086Z,20.30
2023-04-28T06:06:35.139Z,18.92
2023-04-28T06:09:06.033Z,17.08
2023-04-28T06:11:34.493Z,24.15
2023-04-28T06:14:02.517Z,23.77
2023-04-28T06:16:30.575Z,20.88
2023-04-28T06:18:58.843Z,28.77
2023-04-28T06:21:27.410Z,23.73
2023-04-28T06:23:55.251Z,27.80
2023-04-28T06:26:25.035Z,27.88
2023-04-28T06:28:52.935Z,36.78
2023-04-28T06:31:20.925Z,31.05
2023-04-28T06:33:48.772Z,29.48
2023-04-28T06:36:18.019Z,28.75
2023-04-28T06:38:46.166Z,33.60
2023-04-28T06:41:14.089Z,29.85
2023-04-28T06:43:46.188Z,24.50
2023-04-28T06:46:22.395Z,28.00
2023-04-28T06:48:50.275Z,23.90
2023-04-28T06:51:18.044Z,23.48
2023-04-28T06:53:45.870Z,26.00
2023-04-28T06:56:13.631Z,19.52
2023-04-28T06:58:41.533Z,19.63
2023-04-28T07:01:10.895Z,22.70
2023-04-28T07:03:39.424Z,19.02
2023-04-28T07:06:07.708Z,20.25
2023-04-28T07:08:36.458Z,23.77
2023-04-28T07:11:04.721Z,21.15
2023-04-28T07:13:33.120Z,19.33
2023-04-28T07:16:00.951Z,20.05
2023-04-28T07:18:30.295Z,19.13
2023-04-28T07:20:58.150Z,21.35
2023-04-28T07:23:26.039Z,21.23
2023-04-28T07:25:53.835Z,19.10
2023-04-28T07:28:21.649Z,22.48
2023-04-28T07:30:49.420Z,22.42
2023-04-28T07:33:17.214Z,19.58
2023-04-28T07:35:46.404Z,22.45
2023-04-28T07:38:14.270Z,21.92
2023-04-28T07:40:43.414Z,26.15
2023-04-28T07:43:11.247Z,23.35
2023-04-28T07:45:40.378Z,23.02
2023-04-28T07:48:08.638Z,22.58
2023-04-28T07:50:36.512Z,20.05
2023-04-28T07:53:05.696Z,19.23
2023-04-28T07:55:33.496Z,20.73
2023-04-28T07:58:01.696Z,20.55
2023-04-28T08:00:29.544Z,22.70
2023-04-28T08:02:57.896Z,25.52
2023-04-28T08:05:26.320Z,25.33
2023-04-28T08:07:54.613Z,22.90
2023-04-28T08:10:23.846Z,21.77
2023-04-28T08:12:51.819Z,22.67
2023-04-28T08:15:20.546Z,23.55
2023-04-28T08:17:48.443Z,19.92
2023-04-28T08:20:20.522Z,24.15
2023-04-28T08:22:49.480Z,21.13
2023-04-28T08:25:18.471Z,20.33
2023-04-28T08:27:47.768Z,20.23
2023-04-28T08:30:15.611Z,22.27
2023-04-28T08:32:43.481Z,23.33
2023-04-28T08:35:11.321Z,22.05
2023-04-28T08:37:39.259Z,22.45
2023-04-28T08:40:10.171Z,25.10
2023-04-28T08:42:39.534Z,22.17
2023-04-28T08:45:13.881Z,25.10
2023-04-28T08:47:46.132Z,21.85
2023-04-28T08:50:15.381Z,20.80
2023-04-28T08:52:43.814Z,23.05
2023-04-28T08:55:13.706Z,23.42
2023-04-28T08:57:45.523Z,20.05
2023-04-28T09:00:15.746Z,22.93
2023-04-28T09:02:43.744Z,21.73
2023-04-28T09:05:13.105Z,19.45
2023-04-28T09:07:41.834Z,16.75
2023-04-28T09:10:21.876Z,19.17
2023-04-28T09:12:52.422Z,19.08
2023-04-28T09:15:33.889Z,15.57
2023-04-28T09:18:03.966Z,19.02
2023-04-28T09:20:33.914Z,18.52
2023-04-28T09:23:15.950Z,18.17
2023-04-28T09:25:57.599Z,16.73
2023-04-28T09:28:25.773Z,23.45
2023-04-28T09:30:55.222Z,19.65
2023-04-28T09:33:23.094Z,19.30
2023-04-28T09:35:51.669Z,22.38
2023-04-28T09:38:22.019Z,19.10
2023-04-28T09:40:55.859Z,18.23
2023-04-28T09:43:28.793Z,15.93
2023-04-28T09:45:59.799Z,18.25
2023-04-28T09:48:32.738Z,22.83
2023-04-28T09:51:01.771Z,15.35
2023-04-28T09:53:30.410Z,17.13
2023-04-28T09:56:05.093Z,19.02
2023-04-28T09:58:35.398Z,17.45
2023-04-28T10:01:08.061Z,16.08
2023-04-28T10:03:36.842Z,13.63
2023-04-28T10:06:05.348Z,18.67
2023-04-28T10:08:33.553Z,21.33
2023-04-28T10:11:02.413Z,17.88
2023-04-28T10:13:31.065Z,17.63
2023-04-28T10:15:58.929Z,15.68
2023-04-28T10:18:29.005Z,13.38
2023-04-28T10:20:59.501Z,14.13
2023-04-28T10:24:00.792Z,16.30
2023-04-28T10:27:05.727Z,14.10
2023-04-28T10:29:34.581Z,17.80
2023-04-28T10:32:23.275Z,15.43
2023-04-28T10:34:52.833Z,14.82
2023-04-28T10:37:20.683Z,14.82
2023-04-28T10:40:25.898Z,16.45
2023-04-28T10:42:54.777Z,18.50
2023-04-28T10:45:57.527Z,18.85
2023-04-28T10:48:56.457Z,15.02
2023-04-28T10:51:35.613Z,15.82
2023-04-28T10:54:17.866Z,16.45
2023-04-28T10:57:18.183Z,17.23
2023-04-28T10:59:46.082Z,14.73
2023-04-28T11:02:44.522Z,15.07
2023-04-28T11:05:18.983Z,15.13
2023-04-28T11:08:33.116Z,18.50
2023-04-28T11:11:29.819Z,17.77
2023-04-28T11:14:33.308Z,24.90
2023-04-28T11:17:02.973Z,16.38
2023-04-28T11:19:33.082Z,13.85
2023-04-28T11:22:02.108Z,18.58
2023-04-28T11:24:31.514Z,19.88
2023-04-28T11:27:02.209Z,16.73
2023-04-28T11:29:34.376Z,14.88
2023-04-28T11:32:02.749Z,20.60
2023-04-28T11:34:30.652Z,17.90
2023-04-28T11:36:58.675Z,15.98
2023-04-28T11:39:29.492Z,15.75
2023-04-28T11:41:58.197Z,17.52
2023-04-28T11:44:29.124Z,19.02
2023-04-28T11:47:00.820Z,15.93
2023-04-28T11:49:30.969Z,18.33
2023-04-28T11:52:00.337Z,15.02
2023-04-28T11:54:29.640Z,15.00
2023-04-28T11:56:59.556Z,16.85
2023-04-28T11:59:30.824Z,18.75
2023-04-28T12:02:00.078Z,18.85
2023-04-28T12:04:29.838Z,18.65
2023-04-28T12:07:03.543Z,17.55
2023-04-28T12:09:31.868Z,14.65
2023-04-28T12:12:03.249Z,18.70
2023-04-28T12:14:35.517Z,18.27
2023-04-28T12:17:04.138Z,14.55
2023-04-28T12:19:44.381Z,16.15
2023-04-28T12:22:12.448Z,16.60
2023-04-28T12:24:40.950Z,16.83
2023-04-28T12:27:21.760Z,17.40
2023-04-28T12:29:51.037Z,16.05
2023-04-28T12:32:21.360Z,18.17
2023-04-28T12:34:50.636Z,18.98
2023-04-28T12:37:18.715Z,17.05
2023-04-28T12:39:46.822Z,15.18
2023-04-28T12:42:14.964Z,16.75
2023-04-28T12:44:42.766Z,16.38
2023-04-28T12:47:12.222Z,17.65
2023-04-28T12:49:40.155Z,16.55
2023-04-28T12:52:08.044Z,12.55
2023-04-28T12:54:35.886Z,14.68
2023-04-28T12:57:04.076Z,13.73
2023-04-28T12:59:32.684Z,13.88
2023-04-28T13:02:02.709Z,13.52
2023-04-28T13:04:33.720Z,13.95
2023-04-28T13:07:02.414Z,17.35
2023-04-28T13:09:30.528Z,18.30
2023-04-28T13:11:58.530Z,13.00
2023-04-28T13:14:28.005Z,15.23
2023-04-28T13:16:56.238Z,14.55
2023-04-28T13:19:24.070Z,12.43
2023-04-28T13:21:53.663Z,16.05
2023-04-28T13:24:21.491Z,13.13
2023-04-28T13:26:49.423Z,12.88
2023-04-28T13:29:17.933Z,16.40
2023-04-28T13:31:46.148Z,13.38
2023-04-28T13:34:16.153Z,14.93
2023-04-28T13:36:45.590Z,12.88
2023-04-28T13:39:15.138Z,14.25
2023-04-28T13:41:43.159Z,14.52
2023-04-28T13:44:11.014Z,15.18
2023-04-28T13:46:38.791Z,14.82
2023-04-28T13:49:06.682Z,15.88
2023-04-28T13:51:34.512Z,12.95
2023-04-28T13:54:04.435Z,16.15
2023-04-28T13:56:33.981Z,14.15
2023-04-28T13:59:02.159Z,20.38
2023-04-28T14:01:30.138Z,11.77
2023-04-28T14:03:58.275Z,14.52
2023-04-28T14:06:26.368Z,14.38
2023-04-28T14:08:54.240Z,13.43
2023-04-28T14:11:22.638Z,17.48
2023-04-28T14:13:51.818Z,18.63
2023-04-28T14:16:19.733Z,15.85
2023-04-28T14:18:47.618Z,13.85
2023-04-28T14:21:15.393Z,13.50
2023-04-28T14:23:43.246Z,17.55
2023-04-28T14:26:11.175Z,16.02
2023-04-28T14:28:38.996Z,13.18
2023-04-28T14:31:08.969Z,16.70
2023-04-28T14:33:37.216Z,14.75
2023-04-28T14:36:05.296Z,16.65
2023-04-28T14:38:33.264Z,13.38
2023-04-28T14:41:01.242Z,13.40
2023-04-28T14:43:29.148Z,14.85
2023-04-28T14:45:57.073Z,14.52
2023-04-28T14:48:26.770Z,12.88
2023-04-28T14:50:54.678Z,14.35
2023-04-28T14:53:22.498Z,13.43
2023-04-28T14:55:50.492Z,15.50
2023-04-28T14:58:18.285Z,16.70
2023-04-28T15:00:46.088Z,14.38
2023-04-28T15:03:14.518Z,11.85
2023-04-28T15:05:44.005Z,13.45
2023-04-28T15:08:12.700Z,15.20
2023-04-28T15:10:40.682Z,15.45
2023-04-28T15:13:08.710Z,15.38
2023-04-28T15:15:36.986Z,20.90
2023-04-28T15:18:05.356Z,36.60
2023-04-28T15:20:34.320Z,19.48
2023-04-28T15:23:03.563Z,17.73
2023-04-28T15:25:31.423Z,15.82
2023-04-28T15:27:59.250Z,16.00
2023-04-28T15:30:27.067Z,14.43
2023-04-28T15:32:54.869Z,14.63
2023-04-28T15:35:23.012Z,15.63
2023-04-28T15:37:52.098Z,14.90
2023-04-28T15:40:21.691Z,14.43
2023-04-28T15:42:51.829Z,13.50
2023-04-28T15:45:21.911Z,13.70
2023-04-28T15:47:50.914Z,15.73
2023-04-28T15:50:20.180Z,14.85
2023-04-28T15:52:50.033Z,16.52
2023-04-28T15:55:19.493Z,14.05
2023-04-28T15:57:49.308Z,15.13
2023-04-28T16:00:17.760Z,12.90
2023-04-28T16:02:46.295Z,13.98
2023-04-28T16:05:14.501Z,13.27
2023-04-28T16:07:42.525Z,13.35
2023-04-28T16:10:12.671Z,12.88
2023-04-28T16:12:41.133Z,13.27
2023-04-28T16:15:12.894Z,17.38
2023-04-28T16:17:41.495Z,12.35
2023-04-28T16:20:11.672Z,13.57
2023-04-28T16:22:40.920Z,13.07
2023-04-28T16:25:09.835Z,11.90
2023-04-28T16:27:38.587Z,13.23
2023-04-28T16:30:07.691Z,13.38
2023-04-28T16:32:38.285Z,13.85
2023-04-28T16:35:11.263Z,15.95
2023-04-28T16:37:40.860Z,12.57
2023-04-28T16:40:09.854Z,11.48
2023-04-28T16:42:37.964Z,13.48
2023-04-28T16:45:06.492Z,12.73
2023-04-28T16:47:34.343Z,13.85
2023-04-28T16:50:03.766Z,22.15
2023-04-28T16:52:31.739Z,14.75
2023-04-28T16:55:00.415Z,14.65
2023-04-28T16:57:28.281Z,15.02
2023-04-28T16:59:56.072Z,13.93
2023-04-28T17:02:24.183Z,10.75
2023-04-28T17:04:52.245Z,15.75
2023-04-28T17:07:22.398Z,15.95
2023-04-28T17:09:54.632Z,12.82
2023-04-28T17:12:23.301Z,13.52
2023-04-28T17:14:52.847Z,11.85
2023-04-28T17:17:20.698Z,11.52
2023-04-28T17:19:48.590Z,12.05
2023-04-28T17:22:16.499Z,11.40
2023-04-28T17:24:45.843Z,12.07
2023-04-28T17:27:14.650Z,12.05
2023-04-28T17:29:42.863Z,14.73
2023-04-28T17:32:11.160Z,10.68
2023-04-28T17:34:39.040Z,11.65
2023-04-28T17:37:06.946Z,12.65
2023-04-28T17:39:34.741Z,12.40
2023-04-28T17:42:03.931Z,13.23
2023-04-28T17:44:31.782Z,9.82
2023-04-28T17:47:01.160Z,12.13
2023-04-28T17:49:29.117Z,9.63
2023-04-28T17:51:56.909Z,11.98
2023-04-28T17:54:24.746Z,13.60
2023-04-28T17:56:54.618Z,9.70
2023-04-28T17:59:23.977Z,12.57
2023-04-28T18:01:53.751Z,12.65
2023-04-28T18:04:21.721Z,13.90
2023-04-28T18:06:49.548Z,11.55
2023-04-28T18:09:17.699Z,10.95
2023-04-28T18:11:45.718Z,12.57
2023-04-28T18:14:15.373Z,12.45
2023-04-28T18:16:44.639Z,13.15
2023-04-28T18:19:13.360Z,10.70
2023-04-28T18:21:41.210Z,14.73
2023-04-28T18:24:09.009Z,13.32
2023-04-28T18:26:36.839Z,12.00
2023-04-28T18:29:04.674Z,13.75
2023-04-28T18:31:32.571Z,12.63
2023-04-28T18:34:02.166Z,12.00
2023-04-28T18:36:30.403Z,13.40
2023-04-28T18:38:58.179Z,13.85
2023-04-28T18:41:25.962Z,16.65
2023-04-28T18:43:53.750Z,14.25
2023-04-28T18:46:21.829Z,15.90
2023-04-28T18:48:49.728Z,14.50
2023-04-28T18:51:19.435Z,15.82
2023-04-28T18:53:47.699Z,11.27
2023-04-28T18:56:15.724Z,9.40
2023-04-28T18:58:43.520Z,12.93
2023-04-28T19:01:15.559Z,12.20
2023-04-28T19:03:44.043Z,12.43
2023-04-28T19:06:12.135Z,17.48
2023-04-28T19:08:42.949Z,12.30
2023-04-28T19:11:11.040Z,12.70
2023-04-28T19:13:39.893Z,10.93
2023-04-28T19:16:07.741Z,13.05
2023-04-28T19:18:35.674Z,13.30
2023-04-28T19:21:04.767Z,10.57
2023-04-28T19:23:33.770Z,15.18
2023-04-28T19:26:02.990Z,17.48
2023-04-28T19:28:31.134Z,11.85
2023-04-28T19:30:59.343Z,17.23
2023-04-28T19:33:28.556Z,16.98
2023-04-28T19:35:56.490Z,17.38
2023-04-28T19:38:24.601Z,15.70
2023-04-28T19:41:00.635Z,15.65
2023-04-28T19:43:30.663Z,17.70
2023-04-28T19:45:58.534Z,16.50
2023-04-28T19:48:26.859Z,15.80
2023-04-28T19:50:54.895Z,19.55
2023-04-28T19:53:22.766Z,21.60
2023-04-28T19:55:50.805Z,17.45
2023-04-28T19:58:18.613Z,21.38
2023-04-28T20:00:48.596Z,19.55
2023-04-28T20:03:17.147Z,19.85
2023-04-28T20:05:45.138Z,24.13
2023-04-28T20:08:13.358Z,21.30
2023-04-28T20:10:41.264Z,23.77
2023-04-28T20:13:09.231Z,21.05
2023-04-28T20:15:37.694Z,20.75
2023-04-28T20:18:07.020Z,26.50
2023-04-28T20:20:34.866Z,19.95
2023-04-28T20:23:02.723Z,18.60
2023-04-28T20:25:30.574Z,19.65
2023-04-28T20:27:58.324Z,17.38
2023-04-28T20:30:27.714Z,16.05
2023-04-28T20:32:55.656Z,19.00
2023-04-28T20:35:24.953Z,14.82
2023-04-28T20:37:53.816Z,17.23
2023-04-28T20:40:21.664Z,12.98
2023-04-28T20:42:49.650Z,16.17
2023-04-28T20:45:17.670Z,27.90
2023-04-28T20:47:45.541Z,23.02
2023-04-28T20:50:13.424Z,21.20
2023-04-28T20:52:42.599Z,21.98
2023-04-28T20:55:12.411Z,20.67
2023-04-28T20:57:40.320Z,20.25
2023-04-28T21:00:09.191Z,22.42
2023-04-28T21:02:37.903Z,26.42
2023-04-28T21:05:06.259Z,21.88
2023-04-28T21:07:34.075Z,19.95
2023-04-28T21:10:03.311Z,21.85
2023-04-28T21:12:31.151Z,21.58
2023-04-28T21:14:59.508Z,22.50
2023-04-28T21:17:27.573Z,21.20
2023-04-28T21:19:55.841Z,19.67
2023-04-28T21:22:24.826Z,17.67
2023-04-28T21:24:54.440Z,21.65
2023-04-28T21:27:24.127Z,23.50
2023-04-28T21:29:52.875Z,21.88
2023-04-28T21:32:20.767Z,18.15
2023-04-28T21:34:49.584Z,21.38
2023-04-28T21:37:17.503Z,22.80
2023-04-28T21:39:45.313Z,23.42
2023-04-28T21:42:13.125Z,20.23
2023-04-28T21:44:42.321Z,18.95
2023-04-28T21:47:10.336Z,20.05
2023-04-28T21:49:38.135Z,19.08
2023-04-28T21:52:06.174Z,19.27
2023-04-28T21:54:33.978Z,17.55
2023-04-28T21:57:01.910Z,19.80
2023-04-28T21:59:30.060Z,18.55
2023-04-28T22:01:59.586Z,17.42
2023-04-28T22:06:36.420Z,20.17
2023-04-28T22:09:05.492Z,20.45
2023-04-28T22:11:33.297Z,16.20
2023-04-28T22:14:01.121Z,17.73
2023-04-28T22:16:29.760Z,20.27
2023-04-28T22:18:57.825Z,19.00
2023-04-28T22:21:25.727Z,15.90
2023-04-28T22:23:54.926Z,21.67
2023-04-28T22:26:30.072Z,19.80
2023-04-28T22:28:57.868Z,19.65
2023-04-28T22:31:25.713Z,17.48
2023-04-28T22:33:53.734Z,20.33
2023-04-28T22:36:21.820Z,18.75
2023-04-28T22:38:49.590Z,18.90
2023-04-28T22:41:18.721Z,22.90
2023-04-28T22:43:46.489Z,16.58
2023-04-28T22:46:14.287Z,17.02
2023-04-28T22:48:42.223Z,15.68
2023-04-28T22:51:10.147Z,18.13
2023-04-28T22:53:37.931Z,20.65
2023-04-28T22:56:06.053Z,16.80
2023-04-28T22:58:35.600Z,15.82
2023-04-28T23:01:04.173Z,14.55
2023-04-28T23:03:32.112Z,16.83
2023-04-28T23:06:00.112Z,12.93
2023-04-28T23:08:27.948Z,16.40
2023-04-28T23:10:56.493Z,15.05
2023-04-28T23:13:25.054Z,14.65
2023-04-28T23:15:54.324Z,13.55
2023-04-28T23:18:22.132Z,14.02
2023-04-28T23:20:50.006Z,18.77
2023-04-28T23:23:17.893Z,15.25
2023-04-28T23:25:45.741Z,17.40
2023-04-28T23:28:13.572Z,12.98
2023-04-28T23:30:41.359Z,15.27
2023-04-28T23:33:10.876Z,14.23
2023-04-28T23:35:38.737Z,14.02
2023-04-28T23:38:07.029Z,16.58
2023-04-28T23:40:34.978Z,15.95
2023-04-28T23:43:02.814Z,15.30
2023-04-28T23:45:30.724Z,16.95
2023-04-28T23:47:58.627Z,18.13
2023-04-28T23:50:29.019Z,11.75
2023-04-28T23:52:56.762Z,18.65
2023-04-28T23:55:24.552Z,18.58
2023-04-28T23:57:52.321Z,20.10
